Brandenburg, KY

2:41 PM EDT on May 29, 2017 (GMT -0400)
Woodale Rd | | Change Station

Elev 603 ft 38.00 °N, 86.17 °W | Updated 11 seconds ago

Partly Cloudy
Partly Cloudy
84.9 °F
Feels Like 85 °F
N
0.0
Wind Variable Wind from East
Gusts 0.0 mph

Today
High -- | Low -- °F
--% Chance of Precip.
Yesterday
High -- | Low -- °F
Precip. -- in
Pressure 29.95 in
Visibility 10.0 miles
Clouds Few 17000 ft
Heat Index 85 °F
Dew Point 61 °F
Humidity 44%
Rainfall 0.00 in
Snow Depth Not available.
6:24 AM 8:59 PM
Waxing Crescent, 21% visible
METAR KFTK 291758Z AUTO 25009G18KT 10SM FEW170 27/15 A2996 RMK AO2 SLP142 T02670147 10268 20177 50002
Pressure 29.95 in
Visibility 10.0 miles
Clouds Few 17000 ft
Heat Index 85 °F
Dew Point 61 °F
Humidity 44%
Rainfall 0.00 in
Snow Depth Not available.
6:24 AM 8:59 PM
Waxing Crescent, 21% visible
METAR KFTK 291758Z AUTO 25009G18KT 10SM FEW170 27/15 A2996 RMK AO2 SLP142 T02670147 10268 20177 50002

Get Severe Weather Alerts

Thanks for signing up!

Be on the lookout for a verification email in your inbox.

You'll start receiving the daily forecast at 6 AM.

×

10-Day Weather Forecast

Almanac

Astronomy

May. 29, 2017 Rise Set
Actual Time
Civil Twilight
Nautical Twilight
Astronomical Twilight
Moon
Length of Visible Light
Length of Day
Tomorrow will be .
, % of the Moon is Illuminated

Today's Extremes

State Highs State Lows

Community

WunderPhotos

Category 6

Welcome to Category 6. This is the collective home for Weather Underground's featured writeups by Dr. Jeff Masters (right), Bob Henson (left), Chris Burt, and other regular contributors.

Nearby

Air Quality

  Air Quality AQ Index Pollutant
Not available.

Snow Depth

Station Depth Elevation

Earthquake Activity

City Distance Mag. Time & Date
Minimum magnitude displayed is 2.5.

Coastal Water Temperatures

Place Temperature

Stations

Nearby Weather Stations

Station Location Temp. Windchill Dew Point Humidity Wind Precip. Elev Updated Type
                   

Watches & Warnings

There are currently no watches in effect.